createdAt,value
2017-09-29T00:02:03.859Z,15.60
2017-09-29T00:04:31.299Z,15.60
2017-09-29T00:06:59.503Z,15.40
2017-09-29T00:09:26.959Z,15.40
2017-09-29T00:11:54.395Z,15.40
2017-09-29T00:14:21.856Z,15.40
2017-09-29T00:16:49.299Z,15.40
2017-09-29T00:19:17.521Z,15.30
2017-09-29T00:21:44.973Z,15.30
2017-09-29T00:24:12.416Z,15.20
2017-09-29T00:26:39.865Z,15.20
2017-09-29T00:29:07.301Z,15.10
2017-09-29T00:31:34.744Z,15.00
2017-09-29T00:34:02.952Z,14.90
2017-09-29T00:36:31.159Z,15.10
2017-09-29T00:38:58.616Z,15.00
2017-09-29T00:41:26.051Z,15.10
2017-09-29T00:43:53.499Z,15.00
2017-09-29T00:46:20.953Z,14.80
2017-09-29T00:48:48.413Z,14.90
2017-09-29T00:51:15.864Z,15.00
2017-09-29T00:53:43.321Z,14.90
2017-09-29T00:56:10.775Z,14.90
2017-09-29T00:58:38.218Z,15.00
2017-09-29T01:01:05.663Z,15.10
2017-09-29T01:03:33.875Z,15.30
2017-09-29T01:06:01.314Z,15.20
2017-09-29T01:08:28.760Z,15.30
2017-09-29T01:10:56.203Z,15.20
2017-09-29T01:13:24.415Z,15.30
2017-09-29T01:15:51.865Z,15.30
2017-09-29T01:18:19.320Z,15.10
2017-09-29T01:20:46.772Z,15.20
2017-09-29T01:23:14.227Z,15.30
2017-09-29T01:25:41.683Z,15.20
2017-09-29T01:28:09.127Z,15.20
2017-09-29T01:30:36.571Z,15.20
2017-09-29T01:33:04.020Z,15.20
2017-09-29T01:35:32.238Z,15.30
2017-09-29T01:37:59.683Z,15.30
2017-09-29T01:40:27.137Z,15.20
2017-09-29T01:42:54.595Z,15.30
2017-09-29T01:45:22.053Z,15.30
2017-09-29T01:47:49.504Z,15.30
2017-09-29T01:50:16.966Z,15.30
2017-09-29T01:52:44.419Z,15.20
2017-09-29T01:55:11.875Z,15.20
2017-09-29T01:57:39.323Z,15.00
2017-09-29T02:00:06.787Z,15.00
2017-09-29T02:02:34.235Z,15.00
2017-09-29T02:05:02.480Z,15.10
2017-09-29T02:07:30.707Z,15.10
2017-09-29T02:09:58.146Z,15.10
2017-09-29T02:12:25.602Z,15.10
2017-09-29T02:14:53.043Z,15.00
2017-09-29T02:17:20.558Z,14.80
2017-09-29T02:19:47.991Z,14.80
2017-09-29T02:22:15.447Z,14.80
2017-09-29T02:24:42.895Z,14.90
2017-09-29T02:27:10.344Z,15.00
2017-09-29T02:29:37.794Z,15.10
2017-09-29T02:32:05.251Z,15.00
2017-09-29T02:34:32.696Z,15.00
2017-09-29T02:37:00.143Z,14.80
2017-09-29T02:39:27.576Z,14.60
2017-09-29T02:41:55.794Z,14.60
2017-09-29T02:44:23.244Z,14.60
2017-09-29T02:46:50.688Z,14.50
2017-09-29T02:49:18.124Z,14.40
2017-09-29T02:51:46.344Z,14.60
2017-09-29T02:54:13.781Z,14.50
2017-09-29T02:56:42.270Z,14.60
2017-09-29T02:59:09.990Z,14.70
2017-09-29T03:01:39.430Z,14.70
2017-09-29T03:04:07.302Z,14.70
2017-09-29T03:06:34.759Z,14.80
2017-09-29T03:09:02.215Z,14.80
2017-09-29T03:11:29.671Z,14.70
2017-09-29T03:13:57.127Z,14.70
2017-09-29T03:16:24.582Z,14.70
2017-09-29T03:18:52.034Z,14.70
2017-09-29T03:21:19.496Z,14.70
2017-09-29T03:23:46.950Z,14.80
2017-09-29T03:26:14.409Z,14.70
2017-09-29T03:28:41.863Z,14.60
2017-09-29T03:31:09.303Z,14.80
2017-09-29T03:33:36.747Z,14.90
2017-09-29T03:36:04.950Z,14.90
2017-09-29T03:38:32.408Z,14.90
2017-09-29T03:40:59.862Z,14.90
2017-09-29T03:43:27.319Z,14.90
2017-09-29T03:45:54.779Z,14.90
2017-09-29T03:48:22.236Z,14.80
2017-09-29T03:50:50.015Z,14.80
2017-09-29T03:53:17.743Z,14.80
2017-09-29T03:55:47.639Z,14.80
2017-09-29T03:58:16.176Z,14.80
2017-09-29T04:00:43.633Z,14.80
2017-09-29T04:03:11.103Z,14.80
2017-09-29T04:05:38.547Z,14.80
2017-09-29T04:08:06.000Z,14.90
2017-09-29T04:10:33.448Z,14.90
2017-09-29T04:13:00.903Z,14.90
2017-09-29T04:15:28.350Z,14.80
2017-09-29T04:17:55.786Z,14.80
2017-09-29T04:20:23.238Z,14.80
2017-09-29T04:22:50.667Z,14.80
2017-09-29T04:25:18.119Z,14.60
2017-09-29T04:27:45.559Z,14.70
2017-09-29T04:30:13.006Z,14.70
2017-09-29T04:32:40.453Z,14.80
2017-09-29T04:35:07.903Z,14.80
2017-09-29T04:37:35.348Z,14.90
2017-09-29T04:40:02.803Z,14.80
2017-09-29T04:42:30.243Z,14.80
2017-09-29T04:44:57.692Z,14.80
2017-09-29T04:47:25.910Z,14.90
2017-09-29T04:49:53.367Z,14.90
2017-09-29T04:52:21.535Z,15.00
2017-09-29T04:54:48.998Z,14.90
2017-09-29T04:57:16.443Z,14.90
2017-09-29T04:59:43.887Z,14.90
2017-09-29T05:02:11.331Z,15.00
2017-09-29T05:04:38.775Z,15.00
2017-09-29T05:07:06.987Z,15.10
2017-09-29T05:09:34.427Z,15.00
2017-09-29T05:12:01.867Z,15.00
2017-09-29T05:14:29.319Z,15.00
2017-09-29T05:16:57.528Z,15.00
2017-09-29T05:19:24.971Z,14.90
2017-09-29T05:21:52.421Z,14.90
2017-09-29T05:24:19.870Z,14.90
2017-09-29T05:26:47.306Z,14.80
2017-09-29T05:29:15.523Z,14.80
2017-09-29T05:31:42.974Z,14.80
2017-09-29T05:34:10.430Z,14.80
2017-09-29T05:39:10.840Z,14.80
2017-09-29T05:41:39.046Z,14.90
2017-09-29T05:44:06.495Z,14.90
2017-09-29T05:46:33.932Z,14.90
2017-09-29T05:49:01.403Z,14.80
2017-09-29T05:51:28.867Z,14.90
2017-09-29T05:53:56.316Z,14.90
2017-09-29T05:56:24.404Z,15.00
2017-09-29T05:58:51.889Z,15.00
2017-09-29T06:01:19.465Z,15.10
2017-09-29T06:03:46.952Z,15.10
2017-09-29T06:06:14.790Z,15.20
2017-09-29T06:08:43.131Z,15.20
2017-09-29T06:11:10.609Z,15.20
2017-09-29T06:13:38.057Z,15.20
2017-09-29T06:16:05.499Z,15.20
2017-09-29T06:18:32.976Z,15.30
2017-09-29T06:21:00.411Z,15.10
2017-09-29T06:23:27.859Z,15.10
2017-09-29T06:25:55.299Z,15.10
2017-09-29T06:28:22.759Z,15.20
2017-09-29T06:30:50.207Z,15.10
2017-09-29T06:33:17.651Z,15.00
2017-09-29T06:35:45.096Z,15.00
2017-09-29T06:38:13.314Z,15.00
2017-09-29T06:40:40.759Z,15.00
2017-09-29T06:43:08.227Z,15.20
2017-09-29T06:45:36.436Z,15.30
2017-09-29T06:48:03.893Z,15.30
2017-09-29T06:50:31.323Z,15.40
2017-09-29T06:53:00.269Z,15.40
2017-09-29T06:55:27.755Z,15.60
2017-09-29T06:57:55.205Z,15.70
2017-09-29T07:00:22.664Z,15.70
2017-09-29T07:02:50.115Z,15.80
2017-09-29T07:05:17.563Z,15.80
2017-09-29T07:07:45.019Z,15.60
2017-09-29T07:10:12.468Z,15.70
2017-09-29T07:12:39.939Z,15.70
2017-09-29T07:15:07.396Z,15.70
2017-09-29T07:17:34.841Z,15.70
2017-09-29T07:20:02.283Z,15.80
2017-09-29T07:22:30.491Z,15.80
2017-09-29T07:25:00.007Z,15.70
2017-09-29T07:27:28.579Z,15.80
2017-09-29T07:29:57.162Z,15.60
2017-09-29T07:32:24.827Z,15.50
2017-09-29T07:34:52.270Z,15.60
2017-09-29T07:37:19.708Z,15.70
2017-09-29T07:39:47.172Z,15.80
2017-09-29T07:42:14.602Z,15.90
2017-09-29T07:44:42.819Z,16.00
2017-09-29T07:47:10.265Z,16.00
2017-09-29T07:49:37.720Z,16.10
2017-09-29T07:52:05.159Z,16.10
2017-09-29T07:54:32.604Z,16.10
2017-09-29T07:57:00.821Z,16.20
2017-09-29T07:59:28.274Z,16.20
2017-09-29T08:01:55.720Z,16.40
2017-09-29T08:04:23.173Z,16.60
2017-09-29T08:06:50.629Z,16.60
2017-09-29T08:09:18.084Z,16.60
2017-09-29T08:11:45.527Z,16.70
2017-09-29T08:14:12.970Z,16.80
2017-09-29T08:16:41.187Z,16.80
2017-09-29T08:19:08.627Z,16.80
2017-09-29T08:21:36.088Z,16.90
2017-09-29T08:24:03.544Z,16.90
2017-09-29T08:26:31.712Z,17.00
2017-09-29T08:28:59.156Z,17.00
2017-09-29T08:31:26.604Z,17.00
2017-09-29T08:33:54.055Z,17.00
2017-09-29T08:36:22.270Z,17.10
2017-09-29T08:38:49.715Z,17.10
2017-09-29T08:41:17.167Z,17.30
2017-09-29T08:43:44.623Z,17.40
2017-09-29T08:46:12.095Z,17.40
2017-09-29T08:48:39.535Z,17.40
2017-09-29T08:51:06.990Z,17.50
2017-09-29T08:53:34.438Z,17.50
2017-09-29T08:56:01.876Z,17.50
2017-09-29T08:58:30.100Z,17.70
2017-09-29T09:00:57.544Z,17.70
2017-09-29T09:03:25.003Z,17.70
2017-09-29T09:05:52.448Z,17.80
2017-09-29T09:08:19.907Z,17.90
2017-09-29T09:10:47.359Z,18.10
2017-09-29T09:13:14.915Z,18.20
2017-09-29T09:15:42.365Z,18.20
2017-09-29T09:18:09.813Z,18.30
2017-09-29T09:20:37.287Z,18.20
2017-09-29T09:23:04.740Z,18.30
2017-09-29T09:25:32.199Z,18.50
2017-09-29T09:28:00.411Z,18.90
2017-09-29T09:30:27.856Z,18.90
2017-09-29T09:32:55.319Z,19.00
2017-09-29T09:35:22.775Z,19.00
2017-09-29T09:37:50.231Z,18.90
2017-09-29T09:40:17.691Z,18.80
2017-09-29T09:42:45.147Z,18.90
2017-09-29T09:45:12.618Z,18.90
2017-09-29T09:47:40.060Z,19.00
2017-09-29T09:50:07.515Z,19.10
2017-09-29T09:52:34.967Z,19.30
2017-09-29T09:55:02.427Z,19.40
2017-09-29T09:57:29.883Z,19.60
2017-09-29T09:59:57.343Z,19.60
2017-09-29T10:02:24.801Z,19.80
2017-09-29T10:04:52.255Z,20.00
2017-09-29T10:07:19.707Z,20.20
2017-09-29T10:09:47.162Z,20.40
2017-09-29T10:12:14.611Z,20.60
2017-09-29T10:14:42.070Z,20.20
2017-09-29T10:17:09.513Z,20.40
2017-09-29T10:19:36.968Z,20.70
2017-09-29T10:22:04.420Z,20.70
2017-09-29T10:24:31.881Z,20.90
2017-09-29T10:26:59.334Z,21.10
2017-09-29T10:29:26.787Z,21.20
2017-09-29T10:31:54.249Z,21.30
2017-09-29T10:34:21.695Z,20.80
2017-09-29T10:36:49.149Z,21.30
2017-09-29T10:39:16.608Z,21.80
2017-09-29T10:41:44.060Z,22.60
2017-09-29T10:44:11.514Z,23.50
2017-09-29T10:46:38.963Z,23.90
2017-09-29T10:49:06.401Z,24.90
2017-09-29T10:51:33.857Z,24.60
2017-09-29T10:54:02.067Z,25.00
2017-09-29T10:56:29.512Z,24.90
2017-09-29T10:58:56.967Z,24.50
2017-09-29T11:01:24.412Z,24.20
2017-09-29T11:03:51.862Z,23.70
2017-09-29T11:06:19.308Z,24.30
2017-09-29T11:08:47.532Z,24.70
2017-09-29T11:11:14.983Z,24.70
2017-09-29T11:13:42.431Z,24.70
2017-09-29T11:16:09.880Z,24.70
2017-09-29T11:18:37.335Z,25.20
2017-09-29T11:21:04.777Z,25.10
2017-09-29T11:23:32.227Z,25.20
2017-09-29T11:25:59.663Z,25.30
2017-09-29T11:28:27.875Z,25.80
2017-09-29T11:30:58.148Z,25.70
2017-09-29T11:33:25.591Z,26.10
2017-09-29T11:35:53.052Z,25.10
2017-09-29T11:38:20.486Z,25.40
2017-09-29T11:40:47.936Z,26.10
2017-09-29T11:43:15.383Z,26.10
2017-09-29T11:45:42.832Z,26.30
2017-09-29T11:48:10.288Z,25.60
2017-09-29T11:50:37.724Z,25.80
2017-09-29T11:53:05.163Z,25.90
2017-09-29T11:55:33.389Z,25.50
2017-09-29T11:58:00.835Z,25.40
2017-09-29T12:00:28.287Z,26.00
2017-09-29T12:02:55.743Z,25.30
2017-09-29T12:05:23.198Z,25.20
2017-09-29T12:07:50.643Z,25.40
2017-09-29T12:10:18.091Z,25.50
2017-09-29T12:12:45.538Z,25.30
2017-09-29T12:15:13.028Z,25.50
2017-09-29T12:17:40.475Z,25.30
2017-09-29T12:20:07.940Z,25.40
2017-09-29T12:22:35.390Z,25.50
2017-09-29T12:25:02.851Z,25.60
2017-09-29T12:27:30.301Z,25.50
2017-09-29T12:29:57.738Z,25.50
2017-09-29T12:32:25.175Z,25.40
2017-09-29T12:34:53.417Z,25.40
2017-09-29T12:37:21.823Z,25.40
2017-09-29T12:39:49.332Z,25.20
2017-09-29T12:42:17.114Z,25.20
2017-09-29T12:44:44.600Z,24.80
2017-09-29T12:47:12.090Z,23.70
2017-09-29T12:49:42.389Z,23.90
2017-09-29T12:52:10.701Z,24.50
2017-09-29T12:54:38.219Z,24.50
2017-09-29T12:57:06.439Z,22.80
2017-09-29T12:59:34.035Z,22.70
2017-09-29T13:02:01.523Z,23.30
2017-09-29T13:04:28.979Z,23.70
2017-09-29T13:06:57.236Z,24.00
2017-09-29T13:09:24.675Z,24.00
2017-09-29T13:11:52.131Z,23.10
2017-09-29T13:14:19.584Z,22.90
2017-09-29T13:16:48.295Z,22.90
2017-09-29T13:19:15.727Z,23.10
2017-09-29T13:21:43.271Z,23.50
2017-09-29T13:24:10.855Z,23.80
2017-09-29T13:26:38.304Z,24.10
2017-09-29T13:29:05.770Z,24.30
2017-09-29T13:31:33.203Z,24.40
2017-09-29T13:34:00.655Z,24.40
2017-09-29T13:36:28.958Z,24.40
2017-09-29T13:38:56.404Z,23.80
2017-09-29T13:41:23.846Z,24.10
2017-09-29T13:43:51.300Z,24.00
2017-09-29T13:46:18.743Z,23.50
2017-09-29T13:48:46.200Z,23.50
2017-09-29T13:51:14.407Z,23.70
2017-09-29T13:53:43.022Z,23.90
2017-09-29T13:56:11.613Z,23.90
2017-09-29T13:58:39.087Z,23.90
2017-09-29T14:01:06.543Z,23.60
2017-09-29T14:03:34.018Z,23.40
2017-09-29T14:06:01.460Z,23.20
2017-09-29T14:08:28.922Z,23.20
2017-09-29T14:10:56.671Z,23.00
2017-09-29T14:13:24.226Z,23.10
2017-09-29T14:15:51.690Z,23.10
2017-09-29T14:18:19.186Z,23.10
2017-09-29T14:20:47.279Z,23.20
2017-09-29T14:23:15.507Z,23.40
2017-09-29T14:25:42.971Z,23.40
2017-09-29T14:28:10.494Z,23.50
2017-09-29T14:30:37.942Z,23.70
2017-09-29T14:33:05.398Z,23.80
2017-09-29T14:35:32.875Z,23.80
2017-09-29T14:38:01.091Z,23.60
2017-09-29T14:40:28.540Z,23.60
2017-09-29T14:42:55.988Z,23.60
2017-09-29T14:45:23.430Z,23.40
2017-09-29T14:47:50.888Z,23.10
2017-09-29T14:50:18.375Z,23.20
2017-09-29T14:52:45.843Z,23.30
2017-09-29T14:55:14.075Z,23.40
2017-09-29T14:57:41.526Z,23.40
2017-09-29T15:00:08.975Z,23.40
2017-09-29T15:02:36.431Z,23.40
2017-09-29T15:05:03.895Z,23.20
2017-09-29T15:07:31.349Z,23.00
2017-09-29T15:09:58.808Z,22.90
2017-09-29T15:12:26.260Z,22.80
2017-09-29T15:14:53.718Z,22.80
2017-09-29T15:17:21.169Z,22.50
2017-09-29T15:19:48.623Z,22.40
2017-09-29T15:22:16.575Z,22.40
2017-09-29T15:24:44.867Z,22.50
2017-09-29T15:27:12.299Z,22.50
2017-09-29T15:29:39.745Z,22.50
2017-09-29T15:32:07.950Z,22.40
2017-09-29T15:34:35.407Z,22.40
2017-09-29T15:37:02.867Z,22.30
2017-09-29T15:39:30.318Z,22.30
2017-09-29T15:41:57.763Z,22.30
2017-09-29T15:44:25.210Z,22.30
2017-09-29T15:46:52.651Z,22.20
2017-09-29T15:49:20.875Z,22.20
2017-09-29T15:51:48.323Z,22.20
2017-09-29T15:54:15.776Z,22.20
2017-09-29T15:56:43.235Z,22.20
2017-09-29T15:59:10.691Z,22.20
2017-09-29T16:01:38.142Z,22.10
2017-09-29T16:04:05.582Z,22.20
2017-09-29T16:06:33.031Z,22.10
2017-09-29T16:09:01.251Z,22.00
2017-09-29T16:11:28.700Z,21.90
2017-09-29T16:13:56.159Z,21.90
2017-09-29T16:16:23.616Z,22.00
2017-09-29T16:18:51.068Z,22.00
2017-09-29T16:21:18.519Z,22.00
2017-09-29T16:23:45.975Z,21.90
2017-09-29T16:26:13.430Z,21.80
2017-09-29T16:28:40.900Z,21.80
2017-09-29T16:31:08.379Z,21.80
2017-09-29T16:33:35.827Z,21.80
2017-09-29T16:36:03.276Z,21.80
2017-09-29T16:38:30.731Z,21.80
2017-09-29T16:40:58.185Z,21.70
2017-09-29T16:43:25.638Z,21.70
2017-09-29T16:45:53.113Z,21.60
2017-09-29T16:48:20.548Z,21.40
2017-09-29T16:50:47.986Z,21.30
2017-09-29T16:53:15.447Z,21.30
2017-09-29T16:55:42.906Z,21.20
2017-09-29T16:58:10.359Z,21.00
2017-09-29T17:00:37.828Z,21.00
2017-09-29T17:03:05.287Z,21.00
2017-09-29T17:05:32.735Z,20.90
2017-09-29T17:08:00.196Z,20.80
2017-09-29T17:10:27.654Z,20.80
2017-09-29T17:12:55.116Z,20.80
2017-09-29T17:15:22.583Z,20.80
2017-09-29T17:17:50.042Z,20.70
2017-09-29T17:20:17.487Z,20.70
2017-09-29T17:22:44.939Z,20.60
2017-09-29T17:25:12.423Z,20.50
2017-09-29T17:27:39.868Z,20.40
2017-09-29T17:30:07.328Z,20.40
2017-09-29T17:32:34.780Z,20.20
2017-09-29T17:35:02.244Z,19.90
2017-09-29T17:37:29.693Z,19.50
2017-09-29T17:39:57.163Z,19.40
2017-09-29T17:42:24.603Z,19.20
2017-09-29T17:44:52.075Z,19.30
2017-09-29T17:47:19.523Z,19.10
2017-09-29T17:49:46.978Z,19.20
2017-09-29T17:52:14.435Z,19.10
2017-09-29T17:54:41.893Z,19.20
2017-09-29T17:57:09.347Z,19.20
2017-09-29T17:59:36.809Z,19.30
2017-09-29T18:04:38.197Z,18.80
2017-09-29T18:07:05.631Z,18.70
2017-09-29T18:09:33.078Z,18.70
2017-09-29T18:12:00.534Z,18.60
2017-09-29T18:14:27.974Z,18.70
2017-09-29T18:16:55.429Z,18.60
2017-09-29T18:19:22.866Z,18.70
2017-09-29T18:21:51.087Z,18.80
2017-09-29T18:24:18.535Z,18.70
2017-09-29T18:26:45.987Z,18.80
2017-09-29T18:29:13.431Z,18.80
2017-09-29T18:31:40.889Z,18.60
2017-09-29T18:34:08.331Z,18.70
2017-09-29T18:36:36.547Z,18.80
2017-09-29T18:39:03.987Z,18.70
2017-09-29T18:41:34.852Z,18.80
2017-09-29T18:44:09.910Z,18.80
2017-09-29T18:49:39.132Z,18.80
2017-09-29T18:52:07.354Z,18.40
2017-09-29T18:54:34.815Z,18.40
2017-09-29T18:57:02.276Z,18.40
2017-09-29T18:59:29.731Z,18.30
2017-09-29T19:01:57.449Z,18.40
2017-09-29T19:04:25.009Z,18.50
2017-09-29T19:06:53.224Z,18.40
2017-09-29T19:09:20.667Z,18.40
2017-09-29T19:11:48.144Z,18.50
2017-09-29T19:14:15.602Z,18.50
2017-09-29T19:16:43.052Z,18.50
2017-09-29T19:19:10.524Z,18.40
2017-09-29T19:21:37.972Z,18.20
2017-09-29T19:24:06.185Z,18.10
2017-09-29T19:26:34.433Z,17.90
2017-09-29T19:29:01.887Z,17.90
2017-09-29T19:31:29.331Z,17.80
2017-09-29T19:33:56.807Z,17.90
2017-09-29T19:36:24.257Z,17.90
2017-09-29T19:38:51.721Z,17.80
2017-09-29T19:41:19.174Z,17.80
2017-09-29T19:43:46.615Z,17.70
2017-09-29T19:46:14.059Z,17.30
2017-09-29T19:48:41.516Z,17.30
2017-09-29T19:51:09.011Z,17.30
2017-09-29T19:53:36.477Z,17.20
2017-09-29T19:56:03.923Z,17.20
2017-09-29T19:58:31.372Z,17.00
2017-09-29T20:00:58.838Z,17.10
2017-09-29T20:03:26.284Z,17.10
2017-09-29T20:05:53.730Z,17.10
2017-09-29T20:08:21.166Z,17.10
2017-09-29T20:10:48.614Z,17.10
2017-09-29T20:13:16.058Z,17.00
2017-09-29T20:15:43.514Z,16.70
2017-09-29T20:18:10.948Z,16.50
2017-09-29T20:20:39.184Z,16.50
2017-09-29T20:23:06.608Z,16.50
2017-09-29T20:25:34.062Z,16.50
2017-09-29T20:28:01.503Z,16.40
2017-09-29T20:30:28.955Z,16.30
2017-09-29T20:32:56.395Z,16.20
2017-09-29T20:35:24.623Z,16.40
2017-09-29T20:37:52.058Z,16.40
2017-09-29T20:40:19.499Z,16.40
2017-09-29T20:42:46.947Z,16.20
2017-09-29T20:45:15.247Z,16.30
2017-09-29T20:47:42.683Z,16.30
2017-09-29T20:50:10.123Z,16.30
2017-09-29T20:52:38.331Z,16.20
2017-09-29T20:55:05.771Z,16.20
2017-09-29T20:57:33.232Z,16.10
2017-09-29T21:00:00.683Z,16.00
2017-09-29T21:02:28.136Z,15.80
2017-09-29T21:04:56.347Z,15.80
2017-09-29T21:07:23.786Z,15.80
2017-09-29T21:09:51.232Z,15.80
2017-09-29T21:12:18.671Z,15.80
2017-09-29T21:14:46.887Z,15.90
2017-09-29T21:17:14.335Z,15.80
2017-09-29T21:19:41.783Z,15.90
2017-09-29T21:22:09.243Z,15.90
2017-09-29T21:24:36.698Z,15.90
2017-09-29T21:27:04.167Z,15.70
2017-09-29T21:29:31.611Z,15.70
2017-09-29T21:31:59.047Z,15.60
2017-09-29T21:34:26.501Z,15.70
2017-09-29T21:36:54.708Z,15.60
2017-09-29T21:39:23.059Z,15.50
2017-09-29T21:41:50.494Z,15.20
2017-09-29T21:44:18.711Z,15.10
2017-09-29T21:46:46.157Z,15.10
2017-09-29T21:49:13.614Z,15.10
2017-09-29T21:51:41.054Z,15.20
2017-09-29T21:54:08.503Z,15.20
2017-09-29T21:56:35.942Z,15.30
2017-09-29T21:59:04.155Z,15.20
2017-09-29T22:01:31.590Z,15.20
2017-09-29T22:03:59.032Z,15.20
2017-09-29T22:06:27.249Z,15.10
2017-09-29T22:08:54.699Z,15.10
2017-09-29T22:11:22.139Z,15.20
2017-09-29T22:13:49.571Z,15.00
2017-09-29T22:16:17.785Z,15.00
2017-09-29T22:18:45.233Z,15.00
2017-09-29T22:21:12.675Z,15.10
2017-09-29T22:23:40.116Z,15.10
2017-09-29T22:26:08.323Z,15.20
2017-09-29T22:28:35.767Z,15.20
2017-09-29T22:31:03.222Z,15.20
2017-09-29T22:33:30.664Z,15.00
2017-09-29T22:35:58.877Z,15.00
2017-09-29T22:38:26.323Z,15.00
2017-09-29T22:40:53.780Z,15.00
2017-09-29T22:43:21.223Z,15.00
2017-09-29T22:45:48.699Z,15.10
2017-09-29T22:48:16.130Z,14.80
2017-09-29T22:50:43.568Z,14.70
2017-09-29T22:53:11.788Z,14.60
2017-09-29T22:55:39.235Z,14.60
2017-09-29T22:58:06.691Z,14.60
2017-09-29T23:00:34.130Z,14.70
2017-09-29T23:03:01.579Z,14.50
2017-09-29T23:05:29.031Z,14.40
2017-09-29T23:07:57.254Z,14.60
2017-09-29T23:10:24.698Z,14.50
2017-09-29T23:12:52.143Z,14.60
2017-09-29T23:15:19.601Z,14.60
2017-09-29T23:17:47.064Z,14.60
2017-09-29T23:20:14.509Z,14.50
2017-09-29T23:22:41.947Z,14.40
2017-09-29T23:25:09.382Z,14.40
2017-09-29T23:27:37.607Z,14.40
2017-09-29T23:30:05.052Z,14.40
2017-09-29T23:32:32.496Z,14.30
2017-09-29T23:34:59.946Z,14.30
2017-09-29T23:37:27.391Z,14.20
2017-09-29T23:39:55.622Z,14.10
2017-09-29T23:42:23.066Z,14.10
2017-09-29T23:44:50.531Z,14.10
2017-09-29T23:47:17.962Z,14.10
2017-09-29T23:49:45.423Z,14.10
2017-09-29T23:52:12.877Z,14.20
2017-09-29T23:54:40.335Z,14.20
2017-09-29T23:57:07.788Z,14.30
2017-09-29T23:59:35.232Z,14.20
